Time;durP1;ratioP1;P1;durP2;ratioP2;P2;SDS_P1;SDS_P2;PMS_P1;PMS_P2;Temp;Humidity;BMP_temperature;BMP_pressure;BME280_temperature;BME280_humidity;BME280_pressure;Samples;Min_cycle;Max_cycle;Signal;HPM_P1;HPM_P2
2021/10/29 00:00:20;;;;;;;30.27;18.80;;;;;;;5.78;55.46;101074.97;4426087;32;33373;-86
2021/10/29 00:03:05;;;;;;;30.77;19.80;;;;;;;6.32;53.97;101081.50;4428302;32;33602;-86
2021/10/29 00:05:34;;;;;;;33.13;20.27;;;;;;;6.29;53.86;101073.72;4420918;32;34687;-87
2021/10/29 00:08:04;;;;;;;31.20;19.35;;;;;;;5.84;55.19;101080.19;4423276;32;33923;-86
2021/10/29 00:10:32;;;;;;;28.65;19.05;;;;;;;6.38;53.82;101072.06;4426476;32;34062;-87
2021/10/29 00:13:02;;;;;;;31.77;20.73;;;;;;;6.07;54.62;101075.25;4425690;32;33771;-87
2021/10/29 00:15:31;;;;;;;30.58;20.20;;;;;;;5.57;56.24;101067.84;4425788;32;34387;-85
2021/10/29 00:17:59;;;;;;;31.58;19.85;;;;;;;6.11;55.15;101071.00;4425474;32;34240;-86
2021/10/29 00:20:27;;;;;;;30.90;19.85;;;;;;;6.04;54.67;101075.25;4438396;32;34844;-85
2021/10/29 00:22:55;;;;;;;28.55;19.48;;;;;;;5.79;55.16;101074.09;4412888;32;34055;-86
2021/10/29 00:25:23;;;;;;;29.90;18.40;;;;;;;6.13;54.04;101069.28;4428567;32;33662;-85
2021/10/29 00:27:51;;;;;;;30.48;19.17;;;;;;;6.06;54.00;101068.34;4441547;32;34058;-86
2021/10/29 00:30:20;;;;;;;29.85;19.67;;;;;;;5.75;54.99;101073.19;4438276;32;33925;-86
2021/10/29 00:32:48;;;;;;;31.98;19.85;;;;;;;5.77;54.93;101070.63;4438379;32;32373;-85
2021/10/29 00:35:16;;;;;;;30.83;18.65;;;;;;;6.28;53.13;101068.56;4433543;32;33135;-86
2021/10/29 00:37:46;;;;;;;26.67;17.37;;;;;;;6.23;52.95;101067.66;4417282;32;33661;-86
2021/10/29 00:40:14;;;;;;;31.48;18.90;;;;;;;6.07;53.59;101056.28;4412288;32;33867;-87
2021/10/29 00:42:42;;;;;;;28.42;18.83;;;;;;;6.12;53.48;101062.38;4414354;32;33630;-87
2021/10/29 00:45:10;;;;;;;35.15;19.30;;;;;;;5.63;54.96;101057.56;4431108;32;34238;-87
2021/10/29 00:47:40;;;;;;;28.87;19.20;;;;;;;5.14;56.83;101061.31;4425774;32;34395;-87
2021/10/29 00:50:11;;;;;;;31.30;18.52;;;;;;;5.50;56.01;101064.31;4426898;32;34190;-86
2021/10/29 00:52:39;;;;;;;30.27;18.70;;;;;;;5.39;56.30;101059.03;4424962;32;33156;-87
2021/10/29 00:55:07;;;;;;;33.45;19.92;;;;;;;5.46;56.19;101057.37;4426205;32;33047;-86
2021/10/29 00:57:39;;;;;;;31.40;19.35;;;;;;;5.76;55.49;101053.41;4400466;32;33058;-86
2021/10/29 01:00:09;;;;;;;27.45;17.33;;;;;;;5.37;55.96;101058.13;4412845;32;33431;-86
2021/10/29 01:02:38;;;;;;;29.77;19.10;;;;;;;5.14;56.63;101053.56;4433152;32;33263;-86
2021/10/29 01:05:08;;;;;;;29.15;17.17;;;;;;;5.48;55.49;101051.38;4425444;32;32997;-86
2021/10/29 01:07:36;;;;;;;28.02;16.37;;;;;;;5.56;55.19;101053.16;4412375;32;32845;-87
2021/10/29 01:10:05;;;;;;;26.17;17.52;;;;;;;5.69;54.69;101042.97;4425136;32;33435;-85
2021/10/29 01:12:33;;;;;;;26.37;15.65;;;;;;;5.65;54.99;101043.81;4425781;32;32759;-86
2021/10/29 01:15:03;;;;;;;25.80;16.67;;;;;;;5.67;54.99;101044.66;4419210;32;32870;-87
2021/10/29 01:17:32;;;;;;;26.50;16.52;;;;;;;5.26;55.72;101042.50;4440639;32;34684;-86
2021/10/29 01:20:00;;;;;;;26.75;16.10;;;;;;;5.76;54.48;101046.50;4427261;32;33065;-86
2021/10/29 01:22:28;;;;;;;27.77;17.52;;;;;;;5.44;54.82;101041.88;4440098;32;33245;-86
2021/10/29 01:24:57;;;;;;;30.48;17.08;;;;;;;5.89;53.83;101044.91;4424809;32;32580;-87
2021/10/29 01:27:25;;;;;;;27.73;17.50;;;;;;;5.79;54.23;101040.50;4437090;32;34953;-86
2021/10/29 01:29:52;;;;;;;27.30;16.23;;;;;;;5.24;55.78;101041.63;4437865;32;33965;-87
2021/10/29 01:32:22;;;;;;;26.85;17.25;;;;;;;5.75;54.10;101036.13;4412337;32;34252;-86
2021/10/29 01:34:49;;;;;;;24.63;16.37;;;;;;;5.64;54.51;101033.47;4437536;32;33595;-86
2021/10/29 01:37:18;;;;;;;29.90;17.87;;;;;;;5.77;54.20;101039.59;4449791;32;33788;-86
2021/10/29 01:39:47;;;;;;;27.35;17.45;;;;;;;5.92;53.79;101037.16;4424937;32;33294;-86
2021/10/29 01:42:15;;;;;;;28.65;17.70;;;;;;;5.67;54.68;101036.06;4425086;32;33890;-87
2021/10/29 01:44:45;;;;;;;29.92;18.00;;;;;;;5.27;55.74;101026.16;4427327;32;32564;-87
2021/10/29 01:47:14;;;;;;;31.15;18.10;;;;;;;4.99;56.40;101031.00;4440290;32;34196;-87
2021/10/29 01:49:42;;;;;;;28.42;17.85;;;;;;;5.53;54.95;101028.16;4438315;32;33550;-87
2021/10/29 01:52:11;;;;;;;28.50;17.20;;;;;;;5.31;55.18;101027.91;4423805;32;32892;-86
2021/10/29 01:54:39;;;;;;;26.37;16.62;;;;;;;5.07;56.04;101028.50;4425031;32;33243;-86
2021/10/29 01:57:08;;;;;;;30.37;17.73;;;;;;;5.44;55.12;101035.84;4435069;32;33108;-87
2021/10/29 01:59:36;;;;;;;24.40;16.67;;;;;;;5.16;55.85;101032.94;4411575;32;33425;-87
2021/10/29 02:02:05;;;;;;;28.10;16.83;;;;;;;5.48;55.15;101032.44;4425887;32;32621;-86
2021/10/29 02:04:34;;;;;;;27.25;17.60;;;;;;;5.47;54.64;101025.53;4440222;32;34075;-85
2021/10/29 02:07:02;;;;;;;26.40;16.65;;;;;;;4.74;57.16;101034.97;4439783;32;33553;-85
2021/10/29 02:09:31;;;;;;;26.08;16.42;;;;;;;5.02;55.99;101027.56;4440090;32;34647;-86
2021/10/29 02:11:59;;;;;;;23.50;15.40;;;;;;;5.11;55.57;101021.66;4427612;32;33786;-87
2021/10/29 02:14:28;;;;;;;24.33;15.52;;;;;;;5.27;56.00;101017.56;4439962;32;33581;-87
2021/10/29 02:16:56;;;;;;;21.35;14.48;;;;;;;5.24;56.35;101017.50;4414602;32;33671;-86
2021/10/29 02:19:24;;;;;;;25.30;15.77;;;;;;;4.84;57.46;101025.66;4430956;32;35001;-86
2021/10/29 02:21:53;;;;;;;23.15;15.32;;;;;;;4.89;56.98;101018.78;4415134;32;34178;-86
2021/10/29 02:24:20;;;;;;;24.90;15.57;;;;;;;5.45;55.33;101014.28;4440203;32;32449;-86
2021/10/29 02:26:49;;;;;;;23.80;14.65;;;;;;;5.26;55.83;101010.63;4435702;32;32333;-86
2021/10/29 02:29:16;;;;;;;21.55;14.05;;;;;;;5.21;56.01;101012.31;4424955;32;34091;-87
2021/10/29 02:31:44;;;;;;;26.42;16.05;;;;;;;5.34;55.57;101009.87;4435960;32;33193;-86
2021/10/29 02:34:13;;;;;;;19.77;13.70;;;;;;;5.45;55.17;101011.69;4439472;32;34011;-86
2021/10/29 02:36:40;;;;;;;23.67;14.77;;;;;;;5.59;54.50;101012.72;4424587;32;33327;-86
2021/10/29 02:39:08;;;;;;;21.70;14.68;;;;;;;5.41;54.72;101004.75;4411916;32;32763;-86
2021/10/29 02:41:38;;;;;;;24.15;15.05;;;;;;;5.28;54.98;101003.78;4425100;32;33407;-86
2021/10/29 02:44:06;;;;;;;23.42;14.63;;;;;;;4.70;56.59;101004.78;4413147;32;33005;-85
2021/10/29 02:46:34;;;;;;;27.37;17.37;;;;;;;4.85;56.01;100998.94;4434540;32;32546;-87
2021/10/29 02:49:04;;;;;;;26.50;16.90;;;;;;;4.82;56.35;100996.34;4436073;32;33198;-85
2021/10/29 02:51:32;;;;;;;24.70;16.55;;;;;;;4.73;56.44;100996.22;4431207;32;33609;-86
2021/10/29 02:54:00;;;;;;;24.60;16.27;;;;;;;4.99;55.45;101002.56;4441306;32;33222;-87
2021/10/29 02:56:29;;;;;;;24.42;15.50;;;;;;;5.08;55.27;100994.09;4412708;32;35763;-86
2021/10/29 02:58:57;;;;;;;24.50;15.85;;;;;;;5.04;55.52;100999.19;4424794;32;33688;-86
2021/10/29 03:01:25;;;;;;;23.45;15.73;;;;;;;4.98;55.70;100997.41;4419338;32;33669;-86
2021/10/29 03:03:54;;;;;;;25.77;15.30;;;;;;;4.95;55.66;100995.63;4425299;32;33423;-85
2021/10/29 03:06:21;;;;;;;24.42;14.98;;;;;;;5.19;55.06;100986.44;4418340;32;33311;-87
2021/10/29 03:08:49;;;;;;;26.67;15.57;;;;;;;5.23;54.65;100997.69;4436827;32;33571;-87
2021/10/29 03:11:17;;;;;;;23.05;16.15;;;;;;;5.11;55.11;100991.53;4411828;32;33157;-86
2021/10/29 03:13:46;;;;;;;23.80;15.77;;;;;;;5.06;55.27;100988.00;4412301;32;32836;-86
2021/10/29 03:16:15;;;;;;;25.80;16.48;;;;;;;4.89;55.66;100984.38;4411956;32;32874;-86
2021/10/29 03:18:46;;;;;;;;;;;;;;;4.66;56.37;100988.38;4445534;32;33690;-87
2021/10/29 03:21:15;;;;;;;26.08;15.15;;;;;;;4.63;56.55;100993.50;4419882;32;34461;-86
2021/10/29 03:23:43;;;;;;;23.60;14.23;;;;;;;5.12;55.36;100984.62;4425574;32;33007;-86
2021/10/29 03:26:11;;;;;;;27.25;15.73;;;;;;;5.03;55.55;100984.56;4436484;32;35002;-87
2021/10/29 03:28:41;;;;;;;26.73;15.98;;;;;;;5.07;55.58;100984.59;4424999;32;34723;-86
2021/10/29 03:31:09;;;;;;;27.80;15.02;;;;;;;4.80;56.32;100988.56;4426714;32;34345;-85
2021/10/29 03:33:40;;;;;;;26.37;16.02;;;;;;;4.60;56.95;100983.16;4439645;32;33193;-86
2021/10/29 03:36:08;;;;;;;28.05;15.70;;;;;;;5.05;55.82;100977.66;4431808;32;33631;-86
2021/10/29 03:41:19;;;;;;;26.08;14.57;;;;;;;4.83;56.09;100975.69;4439832;32;34152;-87
2021/10/29 03:44:26;;;;;;;23.20;14.23;;;;;;;4.79;55.88;100970.50;4424903;32;34185;-87
2021/10/29 03:46:41;;;;;;;24.77;15.90;;;;;;;4.53;56.11;100976.16;4440641;32;34227;-86
2021/10/29 03:49:18;;;;;;;31.00;17.77;;;;;;;4.81;55.76;100971.34;4416081;32;33970;-86
2021/10/29 03:51:55;;;;;;;27.43;17.43;;;;;;;4.70;56.29;100970.38;4437927;32;34912;-86
2021/10/29 03:54:30;;;;;;;27.35;16.35;;;;;;;4.66;56.43;100972.87;4438992;32;33927;-86
2021/10/29 03:59:30;;;;;;;29.50;16.97;;;;;;;4.17;58.25;100977.38;4425835;32;33177;-85
2021/10/29 04:01:58;;;;;;;28.50;16.77;;;;;;;4.19;57.98;100978.28;4425455;32;33354;-85
2021/10/29 04:04:26;;;;;;;33.57;17.77;;;;;;;4.39;57.60;100981.16;4426214;32;31711;-86
2021/10/29 04:06:54;;;;;;;28.67;17.57;;;;;;;4.42;57.27;100981.19;4424146;32;34262;-86
2021/10/29 04:09:22;;;;;;;27.37;16.90;;;;;;;4.21;58.06;100981.72;4414512;32;33167;-86
2021/10/29 04:11:51;;;;;;;25.48;16.10;;;;;;;3.98;58.50;100971.91;4440073;32;33905;-86
2021/10/29 04:14:23;;;;;;;28.80;17.20;;;;;;;4.39;57.09;100972.50;4429940;32;32898;-86
2021/10/29 04:16:51;;;;;;;26.60;16.53;;;;;;;4.29;57.31;100982.69;4454747;32;33916;-87
2021/10/29 04:19:19;;;;;;;31.25;16.90;;;;;;;4.20;57.50;100977.41;4421775;32;34113;-85
2021/10/29 04:21:47;;;;;;;29.10;16.73;;;;;;;4.27;57.36;100984.41;4450484;32;33870;-86
2021/10/29 04:24:16;;;;;;;28.25;16.67;;;;;;;4.14;57.50;100980.78;4441834;32;33693;-86
2021/10/29 04:26:43;;;;;;;24.70;15.07;;;;;;;4.22;57.32;100983.47;4431125;32;34614;-85
2021/10/29 04:29:15;;;;;;;26.12;14.95;;;;;;;4.26;57.00;100980.09;4450031;32;35015;-86
2021/10/29 04:31:49;;;;;;;26.50;16.87;;;;;;;3.90;58.44;100989.00;4426839;32;33817;-86
2021/10/29 04:34:22;;;;;;;26.87;16.47;;;;;;;3.88;58.87;100985.50;4427455;32;33610;-86
2021/10/29 04:36:53;;;;;;;28.08;17.75;;;;;;;4.04;57.97;100990.91;4425793;32;32724;-86
2021/10/29 04:39:20;;;;;;;28.97;16.87;;;;;;;3.97;58.14;100977.06;4412836;32;33638;-85
2021/10/29 04:41:50;;;;;;;27.93;16.27;;;;;;;3.71;58.91;100981.78;4425865;32;33991;-85
2021/10/29 04:44:23;;;;;;;26.83;16.23;;;;;;;3.80;59.23;100971.63;4418242;32;33187;-82
2021/10/29 04:46:51;;;;;;;26.13;16.67;;;;;;;4.06;58.65;100974.62;4452146;32;34589;-84
2021/10/29 04:49:20;;;;;;;24.83;15.03;;;;;;;4.35;57.30;100977.62;4426805;32;34742;-83
2021/10/29 04:51:47;;;;;;;27.97;16.03;;;;;;;4.00;58.06;100974.53;4452285;32;33444;-84
2021/10/29 04:54:15;;;;;;;27.62;16.00;;;;;;;4.18;57.12;100971.38;4441961;32;32334;-83
2021/10/29 04:56:43;;;;;;;30.43;16.80;;;;;;;4.12;57.19;100971.25;4425405;32;33216;-84
2021/10/29 04:59:13;;;;;;;28.30;16.83;;;;;;;4.31;56.79;100975.87;4425391;32;33194;-84
2021/10/29 05:01:43;;;;;;;24.50;15.02;;;;;;;4.71;55.74;100972.97;4437303;32;33769;-83
2021/10/29 05:04:14;;;;;;;25.08;15.70;;;;;;;4.88;54.91;100965.44;4438772;32;34009;-84
2021/10/29 05:06:42;;;;;;;25.70;14.57;;;;;;;4.83;54.80;100972.25;4427082;32;32524;-84
2021/10/29 05:09:11;;;;;;;30.30;16.73;;;;;;;4.91;54.66;100962.87;4413549;32;34473;-84
2021/10/29 05:11:39;;;;;;;28.80;16.45;;;;;;;4.65;55.26;100968.59;4440991;32;34210;-84
2021/10/29 05:14:06;;;;;;;28.17;15.57;;;;;;;4.77;54.69;100965.31;4441692;32;33775;-84
2021/10/29 05:16:34;;;;;;;30.57;17.80;;;;;;;4.75;55.13;100963.56;4426040;32;32459;-84
2021/10/29 05:19:02;;;;;;;29.70;16.95;;;;;;;4.84;55.07;100966.25;4432798;32;33612;-84
2021/10/29 05:21:30;;;;;;;27.62;17.73;;;;;;;4.81;54.93;100966.19;4432064;32;34239;-83
2021/10/29 05:23:58;;;;;;;26.35;15.93;;;;;;;4.83;54.94;100970.53;4414185;32;32302;-84
2021/10/29 05:26:27;;;;;;;25.05;15.70;;;;;;;4.88;54.87;100973.19;4428322;32;33877;-84
2021/10/29 05:28:55;;;;;;;28.30;15.85;;;;;;;4.98;53.67;100964.69;4427509;32;32767;-85
2021/10/29 05:31:23;;;;;;;30.05;17.30;;;;;;;4.85;54.42;100962.78;4427357;32;32731;-84
2021/10/29 05:33:51;;;;;;;27.15;17.00;;;;;;;4.76;54.80;100968.72;4430948;32;32439;-84
2021/10/29 05:36:19;;;;;;;31.52;18.23;;;;;;;5.09;53.76;100966.53;4443410;32;32688;-84
2021/10/29 05:38:47;;;;;;;32.20;18.27;;;;;;;4.73;54.10;100966.09;4443737;32;32605;-84
2021/10/29 05:41:16;;;;;;;35.58;18.00;;;;;;;4.73;54.34;100973.84;4415647;32;34407;-85
2021/10/29 05:43:43;;;;;;;33.65;18.25;;;;;;;4.88;54.26;100977.47;4427862;32;33699;-84
2021/10/29 05:46:11;;;;;;;36.70;19.10;;;;;;;5.00;53.78;100975.91;4428058;32;33219;-84
2021/10/29 05:48:45;;;;;;;34.00;17.52;;;;;;;5.04;53.73;100981.09;4415673;32;33166;-84
2021/10/29 05:51:14;;;;;;;30.08;19.73;;;;;;;4.89;54.17;100981.78;4452379;32;34059;-84
2021/10/29 05:56:18;;;;;;;33.95;17.98;;;;;;;5.11;53.66;100980.34;4440545;32;33692;-84
2021/10/29 05:58:48;;;;;;;34.87;17.73;;;;;;;5.49;53.01;100985.91;4428481;32;33308;-87
2021/10/29 06:01:16;;;;;;;31.20;17.95;;;;;;;5.43;53.58;100982.41;4427901;32;32484;-84
2021/10/29 06:03:45;;;;;;;36.55;20.10;;;;;;;5.58;53.34;100985.13;4440093;32;32405;-85
2021/10/29 06:06:13;;;;;;;29.98;17.62;;;;;;;5.73;52.74;100980.94;4434969;32;33898;-85
2021/10/29 06:08:41;;;;;;;38.63;18.40;;;;;;;5.73;52.20;100978.34;4460188;32;33549;-85
2021/10/29 06:11:10;;;;;;;31.33;16.98;;;;;;;5.91;51.71;100970.75;4431108;32;33821;-85
2021/10/29 06:13:38;;;;;;;27.25;18.00;;;;;;;6.04;51.59;100974.34;4429070;32;33556;-85
2021/10/29 06:16:06;;;;;;;39.88;19.65;;;;;;;6.09;51.48;100979.53;4414474;32;33448;-85
2021/10/29 06:18:35;;;;;;;34.45;19.20;;;;;;;6.00;52.06;100975.19;4414127;32;34772;-85
2021/10/29 06:21:05;;;;;;;27.65;18.95;;;;;;;5.95;52.62;100974.25;4426708;32;32712;-85
2021/10/29 06:23:39;;;;;;;51.78;18.98;;;;;;;5.76;54.08;100981.84;4433664;32;32809;-84
2021/10/29 06:26:19;;;;;;;38.92;18.20;;;;;;;6.17;53.21;100977.91;4425662;32;35782;-85
2021/10/29 06:28:47;;;;;;;49.90;20.67;;;;;;;5.99;53.83;100983.78;4428212;32;34020;-85
2021/10/29 06:31:17;;;;;;;42.30;19.83;;;;;;;6.25;53.68;100988.28;4437584;32;34404;-86
2021/10/29 06:33:47;;;;;;;38.85;19.42;;;;;;;6.31;54.10;100986.59;4441806;32;32186;-85
2021/10/29 06:36:14;;;;;;;52.17;20.50;;;;;;;6.59;53.91;100991.94;4431284;32;33690;-86
2021/10/29 06:38:43;;;;;;;37.60;21.02;;;;;;;6.95;53.72;100987.81;4451214;32;33713;-86
2021/10/29 06:41:12;;;;;;;34.20;21.35;;;;;;;7.03;56.76;100993.00;4426579;32;31678;-85
2021/10/29 06:51:57;;;;;;;35.88;21.98;;;;;;;7.68;60.10;101003.53;4462502;32;32833;-86
2021/10/29 07:41:50;;;;;;;34.92;20.08;;;;;;;11.29;51.22;100995.28;4440135;32;34095;-86
2021/10/29 07:44:27;;;;;;;34.03;21.15;;;;;;;11.51;50.58;100998.47;4416063;32;33386;-87
2021/10/29 07:46:56;;;;;;;38.80;21.95;;;;;;;11.59;50.20;100995.69;4427880;32;33869;-87
2021/10/29 07:49:28;;;;;;;37.67;23.23;;;;;;;11.89;49.33;101005.72;4425114;32;32170;-87
2021/10/29 07:52:00;;;;;;;32.05;22.00;;;;;;;11.55;49.87;101011.44;4425110;32;32810;-88
2021/10/29 07:54:28;;;;;;;39.72;21.83;;;;;;;11.93;49.05;101005.63;4431608;32;33993;-86
2021/10/29 07:56:59;;;;;;;38.03;24.40;;;;;;;12.16;48.17;101001.81;4440070;32;33299;-87
2021/10/29 07:59:29;;;;;;;34.72;22.55;;;;;;;12.39;47.67;101004.03;4428397;32;33421;-86
2021/10/29 08:01:57;;;;;;;37.90;23.58;;;;;;;12.35;47.32;101010.16;4423462;32;33137;-87
2021/10/29 08:04:26;;;;;;;41.22;23.92;;;;;;;12.11;47.90;101006.25;4426296;32;33582;-87
2021/10/29 08:06:55;;;;;;;38.55;26.58;;;;;;;12.26;47.79;101010.34;4414248;32;34342;-87
2021/10/29 08:09:26;;;;;;;34.80;24.00;;;;;;;12.30;47.55;101010.25;4414526;32;32517;-86
2021/10/29 08:11:56;;;;;;;34.83;22.37;;;;;;;12.84;46.62;101011.00;4427541;32;34810;-87
2021/10/29 08:14:25;;;;;;;34.53;21.83;;;;;;;13.19;45.70;101004.19;4413280;32;33346;-86
2021/10/29 08:16:53;;;;;;;36.08;22.02;;;;;;;13.22;45.35;101005.88;4439640;32;34551;-86
2021/10/29 08:19:30;;;;;;;32.80;22.77;;;;;;;13.58;44.83;101009.44;4415106;32;32255;-85
2021/10/29 08:22:03;;;;;;;32.08;21.15;;;;;;;13.79;44.01;100999.37;4438800;32;33767;-88
2021/10/29 08:24:32;;;;;;;37.42;22.92;;;;;;;14.28;43.15;101003.37;4427383;32;32959;-85
2021/10/29 08:27:01;;;;;;;34.70;22.08;;;;;;;14.39;42.25;101004.84;4426854;32;33331;-87
2021/10/29 08:29:29;;;;;;;34.17;22.80;;;;;;;14.24;42.25;101001.72;4439302;32;32876;-87
2021/10/29 08:32:02;;;;;;;32.53;21.77;;;;;;;14.55;41.95;100994.81;4427634;32;35385;-86
2021/10/29 08:34:32;;;;;;;32.72;21.35;;;;;;;14.55;41.51;100998.28;4428594;32;33403;-85
2021/10/29 08:37:02;;;;;;;;;;;;;;;14.57;41.59;100996.50;4428858;32;34147;-85
2021/10/29 08:39:31;;;;;;;39.20;22.70;;;;;;;14.86;41.08;100997.44;4416890;32;32368;-86
2021/10/29 08:42:01;;;;;;;35.05;22.33;;;;;;;15.07;40.69;100990.72;4429688;32;32851;-86
2021/10/29 08:44:30;;;;;;;33.47;22.20;;;;;;;15.22;40.42;100983.28;4442508;32;34027;-86
2021/10/29 08:47:02;;;;;;;30.45;21.70;;;;;;;15.26;39.98;100980.50;4429438;32;34856;-86
2021/10/29 08:49:34;;;;;;;33.90;23.20;;;;;;;15.42;39.92;100983.50;4427830;32;32947;-85
2021/10/29 08:52:07;;;;;;;39.13;22.80;;;;;;;15.57;39.48;100979.56;4440614;32;33881;-84
2021/10/29 08:54:36;;;;;;;34.88;21.73;;;;;;;15.64;39.20;100985.47;4427685;32;32625;-85
2021/10/29 08:57:04;;;;;;;35.58;22.52;;;;;;;15.80;38.92;100978.84;4426925;32;34429;-86
2021/10/29 08:59:33;;;;;;;41.60;22.75;;;;;;;16.11;38.18;100967.28;4440589;32;32503;-84
2021/10/29 09:07:34;;;;;;;31.70;22.00;;;;;;;16.55;37.40;100964.00;4442460;32;33811;-85
2021/10/29 09:33:00;;;;;;;28.25;19.23;;;;;;;17.73;34.79;100947.19;4443390;32;32236;-85
2021/10/29 09:35:31;;;;;;;31.83;20.35;;;;;;;17.97;34.37;100955.84;4428586;32;32935;-87
2021/10/29 09:38:04;;;;;;;27.23;19.25;;;;;;;18.13;34.01;100950.78;4427337;32;34590;-86
2021/10/29 09:41:02;;;;;;;25.77;18.00;;;;;;;18.06;33.95;100948.50;4427768;32;32336;-86
2021/10/29 09:43:31;;;;;;;;;;;;;;;18.25;33.79;100952.03;4456835;32;32957;-85
2021/10/29 09:46:02;;;;;;;29.23;18.90;;;;;;;18.38;33.42;100949.72;4426095;32;34189;-86
2021/10/29 09:49:03;;;;;;;29.85;20.17;;;;;;;18.30;33.29;100944.78;4433977;32;34528;-85
2021/10/29 09:51:35;;;;;;;30.30;19.58;;;;;;;18.29;33.42;100947.50;4453075;32;33858;-85
2021/10/29 09:54:14;;;;;;;29.50;18.55;;;;;;;17.85;34.09;100945.81;4427342;32;33461;-86
2021/10/29 09:56:48;;;;;;;28.92;19.30;;;;;;;18.40;33.44;100944.38;4442742;32;34336;-88
2021/10/29 09:59:16;;;;;;;25.88;18.48;;;;;;;18.34;33.35;100942.88;4444511;32;34106;-87
2021/10/29 10:01:44;;;;;;;27.75;18.75;;;;;;;18.52;33.03;100935.91;4434597;32;33130;-85
2021/10/29 10:04:13;;;;;;;27.95;18.83;;;;;;;19.02;32.36;100930.09;4434590;32;32469;-84
2021/10/29 10:06:41;;;;;;;26.52;17.62;;;;;;;19.06;32.15;100932.59;4440937;32;33138;-84
2021/10/29 10:09:09;;;;;;;31.87;18.70;;;;;;;19.27;31.76;100934.22;4428371;32;33635;-84
2021/10/29 10:11:39;;;;;;;28.87;18.25;;;;;;;19.15;31.90;100934.81;4428767;32;34102;-85
2021/10/29 10:14:09;;;;;;;28.58;18.90;;;;;;;18.93;32.27;100927.91;4429309;32;32882;-86
2021/10/29 10:16:41;;;;;;;28.15;19.00;;;;;;;18.97;32.15;100926.84;4430692;32;32650;-86
2021/10/29 10:19:09;;;;;;;32.67;21.17;;;;;;;18.95;32.20;100923.41;4426097;32;33785;-86
2021/10/29 10:21:41;;;;;;;32.60;20.35;;;;;;;19.19;32.10;100926.66;4440285;32;32852;-85
2021/10/29 10:24:17;;;;;;;34.28;21.60;;;;;;;19.20;31.86;100922.25;4426262;32;32636;-86
2021/10/29 10:27:20;;;;;;;38.35;21.33;;;;;;;19.28;31.86;100911.28;4422047;32;33574;-85
2021/10/29 10:49:12;;;;;;;28.30;18.83;;;;;;;20.46;29.54;100888.53;4426315;32;33913;-87
2021/10/29 10:51:46;;;;;;;27.62;19.42;;;;;;;20.31;29.67;100882.25;4442014;32;33926;-87
2021/10/29 10:55:13;;;;;;;26.67;20.85;;;;;;;20.57;29.20;100880.00;4425655;32;33500;-85
2021/10/29 11:05:35;;;;;;;28.60;19.33;;;;;;;20.93;28.48;100864.84;4439401;32;34610;-86
2021/10/29 11:11:19;;;;;;;35.83;21.50;;;;;;;20.72;28.61;100873.03;4438347;32;32411;-86
2021/10/29 11:13:56;;;;;;;28.80;18.27;;;;;;;20.52;28.99;100866.16;4426101;32;33944;-86
2021/10/29 11:16:29;;;;;;;31.77;18.67;;;;;;;20.63;28.80;100855.81;4448189;32;34614;-86
2021/10/29 11:19:18;;;;;;;27.95;17.87;;;;;;;20.93;28.35;100852.44;4438284;32;33337;-87
2021/10/29 11:21:51;;;;;;;29.10;18.37;;;;;;;21.08;28.07;100858.66;4426620;32;34728;-85
2021/10/29 11:24:32;;;;;;;25.15;17.15;;;;;;;21.31;27.70;100844.09;4420605;32;33801;-87
2021/10/29 11:27:05;;;;;;;;;;;;;;;21.62;27.08;100847.59;4420331;32;33916;-87
2021/10/29 11:29:45;;;;;;;27.02;16.35;;;;;;;20.57;28.46;100842.94;4425723;32;33320;-87
2021/10/29 11:32:17;;;;;;;21.92;15.98;;;;;;;21.12;27.73;100836.34;4426144;32;33606;-87
2021/10/29 11:34:47;;;;;;;21.98;15.43;;;;;;;21.17;27.62;100834.28;4438629;32;33929;-86
2021/10/29 11:37:15;;;;;;;27.37;15.13;;;;;;;21.06;27.74;100826.09;4427749;32;33278;-86
2021/10/29 11:39:43;;;;;;;30.10;15.95;;;;;;;21.05;28.02;100820.88;4434491;32;32233;-86
2021/10/29 11:42:11;;;;;;;22.95;15.52;;;;;;;21.34;27.25;100820.03;4413168;32;32977;-86
2021/10/29 11:44:39;;;;;;;22.62;15.27;;;;;;;21.32;27.20;100819.25;4425606;32;33188;-87
2021/10/29 11:47:07;;;;;;;24.27;15.52;;;;;;;21.01;27.46;100810.47;4418239;32;33260;-88
2021/10/29 11:49:35;;;;;;;22.00;13.60;;;;;;;21.31;26.95;100806.97;4424730;32;33760;-88
2021/10/29 11:52:04;;;;;;;20.58;14.80;;;;;;;21.10;27.09;100810.88;4429417;32;32948;-87
2021/10/29 11:54:38;;;;;;;22.52;13.62;;;;;;;20.83;27.01;100807.09;4439811;32;32877;-88
2021/10/29 12:00:12;;;;;;;18.60;14.43;;;;;;;21.40;26.65;100794.13;4425927;32;33587;-88
2021/10/29 12:05:51;;;;;;;19.55;12.95;;;;;;;20.82;27.47;100796.56;4431946;32;33477;-87
2021/10/29 12:08:22;;;;;;;24.35;14.00;;;;;;;21.15;26.80;100783.19;4443700;32;33731;-87
2021/10/29 12:11:00;;;;;;;20.92;12.32;;;;;;;20.81;27.06;100784.28;4444599;32;33410;-87
2021/10/29 12:13:30;;;;;;;23.08;14.02;;;;;;;21.06;26.56;100781.06;4447978;32;34648;-85
2021/10/29 12:15:57;;;;;;;18.90;12.63;;;;;;;21.19;26.18;100779.41;4453688;32;35218;-85
2021/10/29 12:18:38;;;;;;;19.15;11.25;;;;;;;21.41;25.80;100785.22;4416946;32;33042;-88
2021/10/29 12:21:06;;;;;;;;;;;;;;;21.16;26.04;100774.25;4416688;32;32723;-86
2021/10/29 12:23:35;;;;;;;20.73;12.60;;;;;;;21.55;25.62;100771.16;4443221;32;34271;-86
2021/10/29 12:26:10;;;;;;;22.02;11.63;;;;;;;21.28;26.07;100764.72;4427726;32;32117;-86
2021/10/29 12:28:41;;;;;;;15.55;10.63;;;;;;;21.53;25.24;100768.56;4427766;32;34026;-87
2021/10/29 12:31:29;;;;;;;21.02;10.98;;;;;;;21.47;24.81;100766.28;4442031;32;33004;-87
2021/10/29 13:02:01;;;;;;;20.30;11.45;;;;;;;21.71;23.97;100718.87;4440861;32;32597;-85
2021/10/29 13:04:42;;;;;;;22.87;13.07;;;;;;;21.59;24.41;100719.63;4428343;32;33068;-88
2021/10/29 13:07:12;;;;;;;20.85;13.15;;;;;;;21.88;24.03;100715.16;4443383;32;34382;-85
2021/10/29 13:09:40;;;;;;;18.87;12.40;;;;;;;21.64;24.51;100710.44;4433205;32;34484;-86
2021/10/29 13:12:24;;;;;;;21.85;13.98;;;;;;;21.80;24.42;100712.16;4441805;32;33033;-87
2021/10/29 13:15:00;;;;;;;18.58;12.82;;;;;;;22.04;24.04;100706.25;4427334;32;32541;-86
2021/10/29 13:17:37;;;;;;;21.23;13.18;;;;;;;21.75;24.37;100700.97;4439213;32;34700;-84
2021/10/29 13:20:38;;;;;;;23.40;13.80;;;;;;;21.98;24.05;100704.84;4420609;32;33485;-85
2021/10/29 13:28:39;;;;;;;23.85;13.07;;;;;;;21.68;24.63;100696.06;4442313;32;33376;-86
2021/10/29 13:53:41;;;;;;;22.37;13.27;;;;;;;21.90;24.76;100693.84;4430219;32;33614;-87
2021/10/29 14:29:21;;;;;;;19.48;11.77;;;;;;;27.17;18.21;100652.16;4440207;32;34243;-88
2021/10/29 14:31:56;;;;;;;21.90;13.85;;;;;;;27.33;17.94;100655.19;4438575;32;33276;-88
2021/10/29 14:34:33;;;;;;;20.65;12.73;;;;;;;27.77;17.57;100651.44;4421557;32;33813;-89
2021/10/29 14:37:15;;;;;;;22.27;13.95;;;;;;;27.47;18.02;100646.00;4438397;32;33990;-88
2021/10/29 14:39:54;;;;;;;23.27;14.90;;;;;;;26.48;18.94;100646.34;4426389;32;33248;-86
2021/10/29 14:42:39;;;;;;;24.00;13.82;;;;;;;25.21;20.39;100652.97;4439194;32;33402;-87
2021/10/29 14:45:19;;;;;;;42.97;17.45;;;;;;;24.55;21.28;100656.19;4429355;32;34811;-88
2021/10/29 14:48:06;;;;;;;39.33;17.45;;;;;;;23.07;23.20;100656.97;4431542;32;33548;-89
2021/10/29 15:27:50;;;;;;;22.87;14.50;;;;;;;18.22;29.76;100659.41;4433909;32;33117;-88
2021/10/29 15:52:10;;;;;;;32.10;16.15;;;;;;;16.78;33.79;100662.28;4440325;32;33892;-89
2021/10/29 15:54:39;;;;;;;26.35;16.87;;;;;;;16.81;33.64;100659.53;4453847;32;33455;-87
2021/10/29 15:57:07;;;;;;;27.70;16.08;;;;;;;17.07;33.17;100661.09;4416483;32;32399;-88
2021/10/29 16:18:38;;;;;;;27.70;16.87;;;;;;;15.66;36.86;100673.66;4431639;32;32386;-87
2021/10/29 16:21:05;;;;;;;24.35;16.67;;;;;;;15.86;36.49;100662.44;4410620;32;33485;-86
2021/10/29 16:23:33;;;;;;;25.60;15.23;;;;;;;15.80;36.63;100663.53;4423023;32;34485;-86
2021/10/29 16:26:08;;;;;;;27.73;15.85;;;;;;;15.74;36.77;100673.38;4423622;32;34144;-87